createdAt,value
2018-03-01T00:00:08.960Z,54.08
2018-03-01T00:01:09.096Z,54.27
2018-03-01T00:02:09.245Z,54.93
2018-03-01T00:03:09.388Z,54.93
2018-03-01T00:04:09.540Z,54.83
2018-03-01T00:05:09.689Z,54.74
2018-03-01T00:06:09.837Z,55.21
2018-03-01T00:07:09.987Z,55.40
2018-03-01T00:08:10.136Z,55.49
2018-03-01T00:09:10.279Z,55.02
2018-03-01T00:10:10.428Z,55.30
2018-03-01T00:11:10.578Z,56.25
2018-03-01T00:12:10.726Z,56.15
2018-03-01T00:13:10.875Z,56.06
2018-03-01T00:14:11.021Z,56.34
2018-03-01T00:15:11.170Z,55.49
2018-03-01T00:16:11.318Z,55.78
2018-03-01T00:17:11.465Z,55.21
2018-03-01T00:18:11.614Z,56.15
2018-03-01T00:19:11.763Z,56.15
2018-03-01T00:20:11.920Z,56.25
2018-03-01T00:21:12.107Z,55.78
2018-03-01T00:22:12.211Z,55.96
2018-03-01T00:23:12.360Z,56.06
2018-03-01T00:24:12.509Z,56.06
2018-03-01T00:25:12.659Z,55.21
2018-03-01T00:26:12.807Z,55.78
2018-03-01T00:27:12.958Z,55.30
2018-03-01T00:28:13.106Z,55.40
2018-03-01T00:29:13.255Z,55.40
2018-03-01T00:30:13.405Z,55.49
2018-03-01T00:31:13.552Z,54.74
2018-03-01T00:32:13.701Z,55.11
2018-03-01T00:33:13.858Z,55.21
2018-03-01T00:34:14.003Z,55.30
2018-03-01T00:35:14.156Z,55.11
2018-03-01T00:36:14.303Z,55.40
2018-03-01T00:37:14.453Z,55.21
2018-03-01T00:38:14.610Z,56.06
2018-03-01T00:39:14.756Z,55.49
2018-03-01T00:40:14.902Z,55.30
2018-03-01T00:41:15.051Z,55.30
2018-03-01T00:42:15.197Z,55.87
2018-03-01T00:43:15.348Z,56.15
2018-03-01T00:44:15.497Z,56.15
2018-03-01T00:45:15.645Z,55.40
2018-03-01T00:46:15.794Z,55.87
2018-03-01T00:47:15.942Z,56.06
2018-03-01T00:48:16.092Z,56.06
2018-03-01T00:49:16.236Z,55.96
2018-03-01T00:50:16.378Z,55.68
2018-03-01T00:51:16.533Z,55.49
2018-03-01T00:52:16.693Z,55.49
2018-03-01T00:53:16.832Z,55.11
2018-03-01T00:54:16.977Z,55.68
2018-03-01T00:55:17.125Z,55.87
2018-03-01T00:56:17.274Z,56.25
2018-03-01T00:57:17.423Z,55.68
2018-03-01T00:58:17.571Z,56.25
2018-03-01T00:59:17.729Z,56.44
2018-03-01T01:00:17.880Z,55.96
2018-03-01T01:01:18.029Z,55.68
2018-03-01T01:02:18.180Z,56.25
2018-03-01T01:03:18.325Z,55.78
2018-03-01T01:04:18.481Z,56.72
2018-03-01T01:05:18.634Z,56.06
2018-03-01T01:06:18.773Z,56.44
2018-03-01T01:07:18.922Z,56.25
2018-03-01T01:08:19.070Z,55.59
2018-03-01T01:09:19.219Z,55.40
2018-03-01T01:10:19.369Z,55.59
2018-03-01T01:11:19.514Z,56.44
2018-03-01T01:12:19.680Z,56.15
2018-03-01T01:13:19.814Z,56.72
2018-03-01T01:14:19.968Z,56.44
2018-03-01T01:15:20.117Z,56.44
2018-03-01T01:16:20.265Z,55.96
2018-03-01T01:17:20.419Z,56.15
2018-03-01T01:18:20.567Z,56.34
2018-03-01T01:19:20.728Z,57.19
2018-03-01T01:20:20.872Z,56.62
2018-03-01T01:21:21.016Z,56.62
2018-03-01T01:22:21.172Z,56.15
2018-03-01T01:23:21.318Z,56.06
2018-03-01T01:24:21.498Z,56.15
2018-03-01T01:25:21.618Z,56.25
2018-03-01T01:26:21.770Z,55.96
2018-03-01T01:27:21.924Z,55.78
2018-03-01T01:28:22.069Z,55.68
2018-03-01T01:29:22.225Z,55.87
2018-03-01T01:30:22.377Z,56.15
2018-03-01T01:31:22.524Z,56.15
2018-03-01T01:32:22.677Z,56.34
2018-03-01T01:33:22.823Z,56.91
2018-03-01T01:34:22.975Z,57.38
2018-03-01T01:35:23.123Z,57.19
2018-03-01T01:36:23.273Z,57.57
2018-03-01T01:37:23.430Z,56.91
2018-03-01T01:38:23.575Z,56.72
2018-03-01T01:39:23.732Z,57.29
2018-03-01T01:40:23.881Z,57.29
2018-03-01T01:41:24.029Z,56.81
2018-03-01T01:42:24.180Z,57.00
2018-03-01T01:43:24.325Z,57.47
2018-03-01T01:44:24.478Z,57.38
2018-03-01T01:45:24.628Z,56.06
2018-03-01T01:46:24.776Z,56.25
2018-03-01T01:47:24.930Z,56.15
2018-03-01T01:48:25.078Z,56.06
2018-03-01T01:49:25.292Z,56.15
2018-03-01T01:50:25.371Z,56.81
2018-03-01T01:51:25.520Z,57.38
2018-03-01T01:52:25.669Z,57.29
2018-03-01T01:53:25.822Z,57.29
2018-03-01T01:54:25.967Z,56.91
2018-03-01T01:55:26.116Z,57.10
2018-03-01T01:56:26.273Z,57.10
2018-03-01T01:57:26.411Z,57.19
2018-03-01T01:58:26.556Z,57.00
2018-03-01T01:59:26.699Z,57.57
2018-03-01T02:00:26.850Z,57.29
2018-03-01T02:01:27.000Z,57.10
2018-03-01T02:02:27.149Z,57.38
2018-03-01T02:03:27.301Z,57.19
2018-03-01T02:04:27.479Z,57.29
2018-03-01T02:05:27.602Z,57.29
2018-03-01T02:06:27.751Z,57.00
2018-03-01T02:07:27.899Z,57.29
2018-03-01T02:08:28.051Z,57.10
2018-03-01T02:09:28.201Z,56.91
2018-03-01T02:10:28.349Z,56.81
2018-03-01T02:11:28.496Z,56.91
2018-03-01T02:12:28.645Z,57.29
2018-03-01T02:13:28.804Z,57.47
2018-03-01T02:14:28.955Z,57.85
2018-03-01T02:15:29.096Z,57.95
2018-03-01T02:16:29.246Z,58.23
2018-03-01T02:17:29.400Z,58.42
2018-03-01T02:18:29.552Z,58.98
2018-03-01T02:19:29.692Z,58.13
2018-03-01T02:20:29.839Z,57.38
2018-03-01T02:21:29.988Z,56.81
2018-03-01T02:22:30.134Z,57.57
2018-03-01T02:23:30.284Z,56.91
2018-03-01T02:24:30.433Z,57.38
2018-03-01T02:25:30.580Z,57.38
2018-03-01T02:26:30.738Z,57.29
2018-03-01T02:27:30.885Z,57.19
2018-03-01T02:28:31.034Z,57.76
2018-03-01T02:29:31.183Z,57.19
2018-03-01T02:30:31.325Z,57.38
2018-03-01T02:31:31.481Z,57.19
2018-03-01T02:32:31.627Z,57.19
2018-03-01T02:33:31.773Z,57.19
2018-03-01T02:34:31.923Z,57.95
2018-03-01T02:35:32.077Z,58.32
2018-03-01T02:36:32.212Z,58.42
2018-03-01T02:37:32.361Z,58.61
2018-03-01T02:38:32.509Z,58.23
2018-03-01T02:39:32.660Z,57.85
2018-03-01T02:40:32.806Z,57.95
2018-03-01T02:41:32.956Z,58.32
2018-03-01T02:42:33.110Z,58.89
2018-03-01T02:43:33.259Z,59.27
2018-03-01T02:44:33.403Z,58.23
2018-03-01T02:45:33.550Z,57.47
2018-03-01T02:46:33.699Z,57.66
2018-03-01T02:47:33.857Z,57.66
2018-03-01T02:48:34.006Z,57.76
2018-03-01T02:49:34.154Z,57.66
2018-03-01T02:50:34.302Z,57.38
2018-03-01T02:51:34.452Z,57.10
2018-03-01T02:52:34.600Z,57.10
2018-03-01T02:53:34.756Z,56.91
2018-03-01T02:54:34.896Z,56.91
2018-03-01T02:55:35.045Z,56.91
2018-03-01T02:56:35.190Z,56.34
2018-03-01T02:57:35.340Z,56.53
2018-03-01T02:58:35.489Z,56.25
2018-03-01T02:59:35.638Z,56.06
2018-03-01T03:00:35.800Z,55.96
2018-03-01T03:01:35.944Z,56.15
2018-03-01T03:02:36.096Z,56.25
2018-03-01T03:03:36.246Z,56.44
2018-03-01T03:04:36.396Z,56.44
2018-03-01T03:05:36.546Z,57.00
2018-03-01T03:06:36.695Z,57.47
2018-03-01T03:07:36.846Z,57.29
2018-03-01T03:08:37.020Z,57.29
2018-03-01T03:09:37.136Z,56.06
2018-03-01T03:10:37.283Z,56.72
2018-03-01T03:11:37.433Z,57.19
2018-03-01T03:12:37.580Z,56.91
2018-03-01T03:13:37.730Z,56.91
2018-03-01T03:14:37.881Z,57.38
2018-03-01T03:15:38.029Z,57.38
2018-03-01T03:16:38.179Z,56.62
2018-03-01T03:17:38.326Z,56.25
2018-03-01T03:18:38.480Z,56.15
2018-03-01T03:19:38.628Z,56.53
2018-03-01T03:20:38.776Z,56.81
2018-03-01T03:21:38.924Z,57.19
2018-03-01T03:22:39.066Z,57.19
2018-03-01T03:23:39.220Z,57.76
2018-03-01T03:24:39.378Z,57.19
2018-03-01T03:25:39.521Z,57.47
2018-03-01T03:26:39.675Z,57.38
2018-03-01T03:27:39.819Z,57.85
2018-03-01T03:28:39.968Z,58.04
2018-03-01T03:29:40.117Z,57.66
2018-03-01T03:30:40.274Z,57.19
2018-03-01T03:31:40.424Z,56.91
2018-03-01T03:32:40.572Z,57.66
2018-03-01T03:33:40.721Z,58.04
2018-03-01T03:34:40.871Z,58.23
2018-03-01T03:35:41.016Z,58.42
2018-03-01T03:36:41.172Z,57.47
2018-03-01T03:37:41.319Z,57.66
2018-03-01T03:38:41.470Z,57.47
2018-03-01T03:39:41.619Z,57.85
2018-03-01T03:40:41.767Z,57.38
2018-03-01T03:41:42.251Z,57.10
2018-03-01T03:42:42.067Z,57.29
2018-03-01T03:43:42.211Z,57.57
2018-03-01T03:44:42.358Z,57.19
2018-03-01T03:45:42.506Z,56.81
2018-03-01T03:46:42.655Z,57.19
2018-03-01T03:47:42.804Z,57.19
2018-03-01T03:48:42.953Z,57.57
2018-03-01T03:49:43.106Z,57.00
2018-03-01T03:50:43.259Z,57.10
2018-03-01T03:51:43.399Z,57.47
2018-03-01T03:52:43.546Z,56.91
2018-03-01T03:53:43.695Z,57.38
2018-03-01T03:54:43.844Z,57.29
2018-03-01T03:55:43.993Z,57.38
2018-03-01T03:56:44.139Z,58.04
2018-03-01T03:57:44.290Z,57.76
2018-03-01T03:58:44.440Z,57.47
2018-03-01T03:59:44.588Z,57.10
2018-03-01T04:00:44.746Z,57.47
2018-03-01T04:01:44.881Z,57.38
2018-03-01T04:02:45.030Z,57.76
2018-03-01T04:03:45.176Z,58.04
2018-03-01T04:04:45.322Z,58.70
2018-03-01T04:05:45.477Z,58.32
2018-03-01T04:06:45.631Z,57.66
2018-03-01T04:07:45.768Z,57.76
2018-03-01T04:08:45.916Z,57.66
2018-03-01T04:09:46.064Z,57.95
2018-03-01T04:10:46.215Z,57.29
2018-03-01T04:11:46.373Z,57.38
2018-03-01T04:12:46.511Z,57.19
2018-03-01T04:13:46.659Z,57.47
2018-03-01T04:14:46.811Z,57.47
2018-03-01T04:15:46.949Z,58.42
2018-03-01T04:16:47.099Z,57.47
2018-03-01T04:17:47.244Z,57.38
2018-03-01T04:18:47.395Z,57.85
2018-03-01T04:19:47.544Z,57.85
2018-03-01T04:20:47.685Z,57.85
2018-03-01T04:21:47.838Z,57.47
2018-03-01T04:22:47.991Z,56.81
2018-03-01T04:23:48.128Z,57.38
2018-03-01T04:24:48.276Z,58.13
2018-03-01T04:25:48.424Z,57.10
2018-03-01T04:26:48.573Z,57.38
2018-03-01T04:27:48.724Z,57.47
2018-03-01T04:28:48.871Z,57.38
2018-03-01T04:29:49.023Z,58.13
2018-03-01T04:30:49.174Z,58.70
2018-03-01T04:31:49.315Z,58.13
2018-03-01T04:32:49.464Z,58.70
2018-03-01T04:33:49.605Z,58.51
2018-03-01T04:34:49.760Z,57.57
2018-03-01T04:35:49.909Z,57.85
2018-03-01T04:36:50.047Z,56.81
2018-03-01T04:37:50.211Z,57.38
2018-03-01T04:38:50.353Z,57.19
2018-03-01T04:39:50.503Z,57.19
2018-03-01T04:40:50.652Z,57.19
2018-03-01T04:41:50.801Z,57.19
2018-03-01T04:42:50.946Z,57.38
2018-03-01T04:43:51.107Z,57.38
2018-03-01T04:44:51.243Z,57.29
2018-03-01T04:45:51.391Z,57.38
2018-03-01T04:46:51.542Z,57.29
2018-03-01T04:47:51.688Z,57.85
2018-03-01T04:48:51.837Z,57.95
2018-03-01T04:49:51.986Z,58.13
2018-03-01T04:50:52.141Z,58.04
2018-03-01T04:51:52.288Z,58.61
2018-03-01T04:52:52.433Z,57.47
2018-03-01T04:53:52.582Z,57.38
2018-03-01T04:54:52.726Z,56.91
2018-03-01T04:55:52.879Z,57.29
2018-03-01T04:56:53.031Z,57.76
2018-03-01T04:57:53.166Z,57.85
2018-03-01T04:58:53.325Z,57.76
2018-03-01T04:59:53.477Z,58.23
2018-03-01T05:00:53.624Z,58.04
2018-03-01T05:01:53.767Z,57.95
2018-03-01T05:02:53.916Z,57.76
2018-03-01T05:03:54.063Z,58.13
2018-03-01T05:04:54.213Z,57.85
2018-03-01T05:05:54.360Z,58.04
2018-03-01T05:06:54.509Z,58.70
2018-03-01T05:07:54.657Z,58.42
2018-03-01T05:08:54.811Z,58.89
2018-03-01T05:09:54.960Z,58.98
2018-03-01T05:10:55.111Z,58.61
2018-03-01T05:11:55.260Z,58.70
2018-03-01T05:12:55.407Z,57.95
2018-03-01T05:13:55.551Z,57.76
2018-03-01T05:14:55.695Z,57.38
2018-03-01T05:15:55.841Z,57.76
2018-03-01T05:16:56.018Z,57.76
2018-03-01T05:17:56.130Z,57.85
2018-03-01T05:18:56.272Z,58.13
2018-03-01T05:19:56.424Z,58.42
2018-03-01T05:20:56.579Z,59.08
2018-03-01T05:21:56.724Z,59.36
2018-03-01T05:22:56.878Z,58.13
2018-03-01T05:23:57.034Z,58.42
2018-03-01T05:24:57.155Z,58.42
2018-03-01T05:25:57.308Z,58.42
2018-03-01T05:26:57.458Z,58.51
2018-03-01T05:27:57.606Z,58.04
2018-03-01T05:28:57.757Z,58.80
2018-03-01T05:29:57.902Z,59.55
2018-03-01T05:30:58.059Z,59.55
2018-03-01T05:31:58.220Z,59.45
2018-03-01T05:32:58.351Z,59.08
2018-03-01T05:33:58.499Z,59.08
2018-03-01T05:34:58.647Z,59.45
2018-03-01T05:35:58.795Z,59.55
2018-03-01T05:36:58.943Z,58.89
2018-03-01T05:37:59.104Z,58.89
2018-03-01T05:38:59.248Z,58.89
2018-03-01T05:39:59.397Z,59.17
2018-03-01T05:40:59.549Z,59.55
2018-03-01T05:41:59.696Z,60.21
2018-03-01T05:42:59.841Z,59.92
2018-03-01T05:43:59.997Z,59.36
2018-03-01T05:45:00.146Z,59.36
2018-03-01T05:46:00.288Z,58.89
2018-03-01T05:47:00.436Z,59.27
2018-03-01T05:48:00.583Z,59.74
2018-03-01T05:49:00.728Z,59.36
2018-03-01T05:50:00.881Z,58.70
2018-03-01T05:51:01.027Z,58.42
2018-03-01T05:52:01.179Z,59.36
2018-03-01T05:53:01.331Z,59.17
2018-03-01T05:54:01.459Z,58.98
2018-03-01T05:55:01.622Z,58.23
2018-03-01T05:56:01.760Z,58.80
2018-03-01T05:57:01.914Z,59.08
2018-03-01T05:58:02.077Z,58.51
2018-03-01T05:59:02.212Z,58.13
2018-03-01T06:00:03.369Z,58.98
2018-03-01T06:01:02.543Z,58.89
2018-03-01T06:02:02.694Z,59.27
2018-03-01T06:03:02.839Z,59.64
2018-03-01T06:04:02.988Z,59.17
2018-03-01T06:05:03.136Z,59.08
2018-03-01T06:06:03.285Z,58.42
2018-03-01T06:07:03.438Z,58.89
2018-03-01T06:08:03.581Z,59.45
2018-03-01T06:09:03.734Z,59.55
2018-03-01T06:10:03.882Z,59.27
2018-03-01T06:11:04.033Z,58.89
2018-03-01T06:12:04.187Z,58.89
2018-03-01T06:13:04.334Z,58.51
2018-03-01T06:14:04.482Z,58.80
2018-03-01T06:15:04.629Z,58.89
2018-03-01T06:16:04.774Z,58.98
2018-03-01T06:17:04.923Z,59.55
2018-03-01T06:18:05.072Z,59.55
2018-03-01T06:19:05.225Z,59.64
2018-03-01T06:20:05.377Z,59.64
2018-03-01T06:21:05.522Z,59.08
2018-03-01T06:22:05.662Z,59.27
2018-03-01T06:23:05.811Z,60.30
2018-03-01T06:24:05.959Z,59.83
2018-03-01T06:25:06.110Z,60.58
2018-03-01T06:26:06.259Z,60.02
2018-03-01T06:27:06.403Z,59.83
2018-03-01T06:28:06.557Z,59.92
2018-03-01T06:29:06.704Z,58.89
2018-03-01T06:30:06.845Z,59.08
2018-03-01T06:31:06.994Z,60.02
2018-03-01T06:32:07.142Z,60.30
2018-03-01T06:33:07.292Z,59.92
2018-03-01T06:34:07.441Z,58.98
2018-03-01T06:35:07.587Z,59.08
2018-03-01T06:36:07.740Z,58.23
2018-03-01T06:37:07.886Z,59.08
2018-03-01T06:38:08.036Z,59.17
2018-03-01T06:39:08.183Z,59.36
2018-03-01T06:40:08.333Z,58.70
2018-03-01T06:41:08.489Z,58.89
2018-03-01T06:42:08.634Z,59.27
2018-03-01T06:43:08.785Z,58.89
2018-03-01T06:44:08.937Z,58.98
2018-03-01T06:45:09.084Z,58.89
2018-03-01T06:46:09.241Z,58.80
2018-03-01T06:47:09.389Z,58.80
2018-03-01T06:48:09.536Z,59.45
2018-03-01T06:49:09.747Z,58.80
2018-03-01T06:50:09.864Z,58.80
2018-03-01T06:51:10.018Z,59.17
2018-03-01T06:52:10.160Z,58.42
2018-03-01T06:53:10.319Z,58.13
2018-03-01T06:54:10.465Z,57.76
2018-03-01T06:55:10.615Z,58.32
2018-03-01T06:56:10.764Z,58.42
2018-03-01T06:57:10.913Z,58.42
2018-03-01T06:58:11.090Z,58.32
2018-03-01T06:59:11.230Z,58.61
2018-03-01T07:00:11.389Z,59.17
2018-03-01T07:01:11.535Z,58.80
2018-03-01T07:02:11.684Z,58.61
2018-03-01T07:03:11.834Z,57.57
2018-03-01T07:04:11.983Z,57.47
2018-03-01T07:05:12.129Z,57.47
2018-03-01T07:06:12.286Z,57.66
2018-03-01T07:07:12.435Z,58.13
2018-03-01T07:08:12.575Z,58.42
2018-03-01T07:09:12.718Z,58.42
2018-03-01T07:10:12.872Z,58.04
2018-03-01T07:11:13.046Z,57.95
2018-03-01T07:12:13.171Z,57.76
2018-03-01T07:13:13.336Z,57.10
2018-03-01T07:14:13.485Z,57.57
2018-03-01T07:15:13.646Z,58.13
2018-03-01T07:16:13.795Z,57.85
2018-03-01T07:17:13.943Z,56.91
2018-03-01T07:18:14.093Z,57.76
2018-03-01T07:19:14.241Z,57.66
2018-03-01T07:20:14.398Z,58.13
2018-03-01T07:21:14.546Z,57.76
2018-03-01T07:22:14.693Z,57.85
2018-03-01T07:23:14.839Z,58.42
2018-03-01T07:24:14.988Z,57.85
2018-03-01T07:25:15.136Z,57.10
2018-03-01T07:26:15.286Z,57.38
2018-03-01T07:27:15.433Z,57.29
2018-03-01T07:28:15.583Z,57.76
2018-03-01T07:29:15.732Z,57.10
2018-03-01T07:30:15.883Z,57.29
2018-03-01T07:31:16.030Z,57.00
2018-03-01T07:32:16.180Z,57.29
2018-03-01T07:33:16.338Z,57.29
2018-03-01T07:34:16.496Z,58.04
2018-03-01T07:35:16.630Z,58.23
2018-03-01T07:36:16.814Z,57.76
2018-03-01T07:37:16.963Z,57.19
2018-03-01T07:38:17.111Z,57.00
2018-03-01T07:39:17.264Z,57.10
2018-03-01T07:40:17.417Z,56.91
2018-03-01T07:41:17.569Z,57.38
2018-03-01T07:42:17.715Z,57.38
2018-03-01T07:43:17.863Z,57.88
2018-03-01T07:44:18.013Z,57.29
2018-03-01T07:45:18.163Z,56.62
2018-03-01T07:46:18.310Z,57.19
2018-03-01T07:47:18.462Z,57.19
2018-03-01T07:48:18.609Z,57.29
2018-03-01T07:49:18.758Z,57.19
2018-03-01T07:50:18.927Z,57.57
2018-03-01T07:51:19.076Z,57.97
2018-03-01T07:52:19.226Z,57.50
2018-03-01T07:53:19.386Z,57.31
2018-03-01T07:54:19.529Z,56.93
2018-03-01T07:55:19.653Z,56.27
2018-03-01T07:56:19.824Z,56.37
2018-03-01T07:57:19.952Z,56.84
2018-03-01T07:58:20.101Z,56.37
2018-03-01T07:59:20.335Z,56.37
2018-03-01T08:00:20.366Z,55.99
2018-03-01T08:01:20.538Z,55.24
2018-03-01T08:02:20.688Z,54.30
2018-03-01T08:03:20.851Z,54.49
2018-03-01T08:04:20.979Z,54.21
2018-03-01T08:05:21.124Z,54.21
2018-03-01T08:06:21.279Z,54.21
2018-03-01T08:07:21.426Z,54.39
2018-03-01T08:08:21.573Z,54.86
2018-03-01T08:09:21.723Z,54.77
2018-03-01T08:10:21.877Z,55.05
2018-03-01T08:11:22.021Z,54.96
2018-03-01T08:12:22.170Z,54.39
2018-03-01T08:13:22.323Z,54.02
2018-03-01T08:14:22.475Z,53.45
2018-03-01T08:15:22.618Z,53.17
2018-03-01T08:16:22.773Z,53.36
2018-03-01T08:17:22.938Z,53.36
2018-03-01T08:18:23.070Z,53.64
2018-03-01T08:19:23.219Z,53.36
2018-03-01T08:20:23.371Z,54.30
2018-03-01T08:21:23.517Z,53.54
2018-03-01T08:22:23.667Z,54.39
2018-03-01T08:23:23.816Z,54.77
2018-03-01T08:24:23.970Z,55.15
2018-03-01T08:25:24.131Z,55.15
2018-03-01T08:26:24.274Z,54.68
2018-03-01T08:27:24.417Z,54.30
2018-03-01T08:28:24.568Z,54.21
2018-03-01T08:29:24.725Z,54.30
2018-03-01T08:30:24.875Z,53.17
2018-03-01T08:31:25.035Z,52.98
2018-03-01T08:32:25.321Z,53.36
2018-03-01T08:33:25.319Z,53.17
2018-03-01T08:34:25.475Z,53.17
2018-03-01T08:35:25.627Z,53.17
2018-03-01T08:36:25.768Z,52.51
2018-03-01T08:37:25.926Z,52.22
2018-03-01T08:38:26.066Z,52.03
2018-03-01T08:39:26.241Z,52.06
2018-03-01T08:40:26.389Z,51.84
2018-03-01T08:41:26.546Z,52.03
2018-03-01T08:42:26.698Z,51.94
2018-03-01T08:43:26.857Z,51.75
2018-03-01T08:44:27.005Z,52.03
2018-03-01T08:45:27.172Z,52.13
2018-03-01T08:46:27.322Z,52.15
2018-03-01T08:47:27.473Z,52.62
2018-03-01T08:48:27.623Z,52.44
2018-03-01T08:49:27.775Z,52.53
2018-03-01T08:50:27.915Z,51.87
2018-03-01T08:51:28.066Z,51.03
2018-03-01T08:52:28.216Z,50.84
2018-03-01T08:53:28.373Z,51.68
2018-03-01T08:54:28.808Z,51.97
2018-03-01T08:55:28.731Z,51.97
2018-03-01T08:56:28.874Z,51.97
2018-03-01T08:57:29.025Z,51.21
2018-03-01T08:58:29.176Z,51.12
2018-03-01T08:59:29.326Z,51.21
2018-03-01T09:00:29.487Z,51.03
2018-03-01T09:01:29.666Z,51.03
2018-03-01T09:02:29.775Z,51.21
2018-03-01T09:03:29.918Z,50.36
2018-03-01T09:04:30.077Z,50.36
2018-03-01T09:05:30.223Z,49.99
2018-03-01T09:06:30.373Z,50.65
2018-03-01T09:07:30.526Z,50.27
2018-03-01T09:08:30.668Z,49.51
2018-03-01T09:09:30.824Z,49.14
2018-03-01T09:10:30.973Z,49.23
2018-03-01T09:11:31.123Z,49.51
2018-03-01T09:12:31.275Z,49.23
2018-03-01T09:13:31.423Z,48.29
2018-03-01T09:14:31.575Z,48.19
2018-03-01T09:15:31.727Z,49.32
2018-03-01T09:16:31.881Z,49.42
2018-03-01T09:17:32.032Z,48.57
2018-03-01T09:18:32.176Z,48.95
2018-03-01T09:19:32.332Z,48.95
2018-03-01T09:20:32.482Z,48.85
2018-03-01T09:21:32.631Z,48.10
2018-03-01T09:22:32.781Z,48.95
2018-03-01T09:23:32.931Z,49.32
2018-03-01T09:24:33.079Z,49.14
2018-03-01T09:25:33.231Z,49.14
2018-03-01T09:26:33.381Z,49.14
2018-03-01T09:27:33.532Z,48.85
2018-03-01T09:28:33.679Z,48.95
2018-03-01T09:29:33.838Z,48.97
2018-03-01T09:30:34.041Z,48.60
2018-03-01T09:31:34.137Z,48.38
2018-03-01T09:32:34.289Z,48.00
2018-03-01T09:33:34.439Z,47.44
2018-03-01T09:34:34.588Z,47.44
2018-03-01T09:35:34.743Z,48.47
2018-03-01T09:36:34.888Z,48.69
2018-03-01T09:37:35.040Z,48.60
2018-03-01T09:38:35.191Z,48.22
2018-03-01T09:39:35.341Z,48.50
2018-03-01T09:40:35.493Z,48.41
2018-03-01T09:41:35.643Z,47.65
2018-03-01T09:42:35.794Z,47.75
2018-03-01T09:43:35.939Z,47.27
2018-03-01T09:44:36.096Z,47.27
2018-03-01T09:45:36.259Z,47.46
2018-03-01T09:46:36.394Z,46.61
2018-03-01T09:47:36.548Z,46.14
2018-03-01T09:48:36.699Z,46.40
2018-03-01T09:49:36.850Z,46.50
2018-03-01T09:50:37.008Z,46.90
2018-03-01T09:51:37.152Z,46.71
2018-03-01T09:52:37.301Z,47.56
2018-03-01T09:53:37.453Z,47.09
2018-03-01T09:54:37.604Z,46.90
2018-03-01T09:55:37.763Z,46.80
2018-03-01T09:56:37.904Z,46.14
2018-03-01T09:57:38.056Z,46.04
2018-03-01T09:58:38.209Z,46.23
2018-03-01T09:59:38.369Z,46.90
2018-03-01T10:00:38.518Z,46.33
2018-03-01T10:01:38.752Z,45.86
2018-03-01T10:02:38.821Z,45.76
2018-03-01T10:03:38.973Z,45.86
2018-03-01T10:04:39.125Z,45.86
2018-03-01T10:05:39.273Z,46.71
2018-03-01T10:06:39.427Z,46.23
2018-03-01T10:07:39.586Z,46.04
2018-03-01T10:08:39.728Z,45.57
2018-03-01T10:09:39.880Z,44.73
2018-03-01T10:10:40.030Z,44.92
2018-03-01T10:11:40.192Z,44.37
2018-03-01T10:12:40.350Z,45.13
2018-03-01T10:13:40.494Z,44.64
2018-03-01T10:14:40.643Z,44.64
2018-03-01T10:15:40.794Z,44.84
2018-03-01T10:16:40.947Z,45.10
2018-03-01T10:17:41.095Z,44.65
2018-03-01T10:18:41.250Z,44.65
2018-03-01T10:19:41.402Z,43.99
2018-03-01T10:20:41.552Z,43.62
2018-03-01T10:21:41.713Z,43.33
2018-03-01T10:22:41.864Z,43.43
2018-03-01T10:23:42.043Z,43.43
2018-03-01T10:24:42.178Z,43.05
2018-03-01T10:25:42.331Z,43.33
2018-03-01T10:26:42.490Z,43.33
2018-03-01T10:27:42.786Z,43.33
2018-03-01T10:28:42.840Z,43.71
2018-03-01T10:29:42.991Z,43.24
2018-03-01T10:30:43.136Z,43.24
2018-03-01T10:31:43.295Z,43.15
2018-03-01T10:32:43.452Z,43.24
2018-03-01T10:33:43.594Z,42.86
2018-03-01T10:34:43.746Z,43.33
2018-03-01T10:35:43.899Z,43.43
2018-03-01T10:36:44.060Z,42.67
2018-03-01T10:37:44.216Z,42.01
2018-03-01T10:38:44.360Z,42.20
2018-03-01T10:39:44.517Z,42.20
2018-03-01T10:40:44.659Z,43.05
2018-03-01T10:41:44.812Z,42.96
2018-03-01T10:42:44.966Z,42.30
2018-03-01T10:43:45.114Z,42.58
2018-03-01T10:44:45.264Z,42.86
2018-03-01T10:45:45.418Z,42.96
2018-03-01T10:46:45.568Z,42.77
2018-03-01T10:47:45.715Z,43.05
2018-03-01T10:48:45.873Z,41.92
2018-03-01T10:49:46.047Z,41.73
2018-03-01T10:50:46.176Z,41.63
2018-03-01T10:51:46.329Z,41.73
2018-03-01T10:52:46.519Z,41.54
2018-03-01T10:53:46.618Z,41.25
2018-03-01T10:54:46.770Z,41.54
2018-03-01T10:55:46.923Z,42.48
2018-03-01T10:56:47.075Z,42.20
2018-03-01T10:57:47.229Z,42.20
2018-03-01T10:58:47.394Z,42.39
2018-03-01T10:59:47.547Z,42.67
2018-03-01T11:00:47.701Z,42.11
2018-03-01T11:01:47.858Z,41.75
2018-03-01T11:02:47.992Z,41.75
2018-03-01T11:03:48.153Z,41.28
2018-03-01T11:04:48.305Z,41.28
2018-03-01T11:05:48.468Z,40.80
2018-03-01T11:06:48.618Z,40.71
2018-03-01T11:07:48.768Z,41.47
2018-03-01T11:08:48.922Z,41.37
2018-03-01T11:09:49.185Z,41.18
2018-03-01T11:10:49.241Z,40.88
2018-03-01T11:11:49.395Z,40.78
2018-03-01T11:12:49.547Z,40.59
2018-03-01T11:13:49.705Z,40.97
2018-03-01T11:14:49.861Z,41.73
2018-03-01T11:15:50.008Z,41.63
2018-03-01T11:16:50.203Z,41.73
2018-03-01T11:17:50.294Z,41.54
2018-03-01T11:18:50.447Z,42.20
2018-03-01T11:19:50.599Z,42.13
2018-03-01T11:20:50.758Z,41.94
2018-03-01T11:21:50.899Z,41.28
2018-03-01T11:22:51.054Z,41.47
2018-03-01T11:23:51.209Z,41.28
2018-03-01T11:24:51.367Z,40.80
2018-03-01T11:25:51.513Z,41.09
2018-03-01T11:26:51.670Z,41.18
2018-03-01T11:27:51.821Z,41.56
2018-03-01T11:28:51.972Z,41.28
2018-03-01T11:29:52.124Z,41.18
2018-03-01T11:30:52.280Z,41.09
2018-03-01T11:31:52.434Z,41.28
2018-03-01T11:32:52.596Z,40.90
2018-03-01T11:33:52.735Z,41.09
2018-03-01T11:34:52.927Z,40.61
2018-03-01T11:35:53.038Z,39.86
2018-03-01T11:36:53.195Z,39.86
2018-03-01T11:37:53.349Z,39.58
2018-03-01T11:38:53.511Z,40.24
2018-03-01T11:39:53.663Z,40.99
2018-03-01T11:40:53.844Z,40.42
2018-03-01T11:41:54.019Z,40.80
2018-03-01T11:42:54.169Z,40.90
2018-03-01T11:43:54.321Z,40.61
2018-03-01T11:44:54.477Z,40.41
2018-03-01T11:45:54.631Z,40.42
2018-03-01T11:46:54.781Z,41.18
2018-03-01T11:47:54.934Z,40.90
2018-03-01T11:48:55.084Z,41.09
2018-03-01T11:49:55.238Z,41.56
2018-03-01T11:50:55.382Z,41.28
2018-03-01T11:51:55.596Z,40.99
2018-03-01T11:52:55.739Z,40.99
2018-03-01T11:53:55.892Z,40.52
2018-03-01T11:54:56.045Z,40.33
2018-03-01T11:55:56.198Z,40.99
2018-03-01T11:56:56.346Z,40.52
2018-03-01T11:57:56.510Z,40.33
2018-03-01T11:58:56.671Z,40.05
2018-03-01T11:59:56.816Z,40.61
2018-03-01T12:00:56.971Z,40.42
2018-03-01T12:01:57.113Z,40.14
2018-03-01T12:02:57.309Z,39.86
2018-03-01T12:03:57.467Z,39.76
2018-03-01T12:04:57.651Z,39.86
2018-03-01T12:05:57.776Z,40.52
2018-03-01T12:06:57.929Z,40.61
2018-03-01T12:07:58.088Z,40.90
2018-03-01T12:08:58.219Z,40.42
2018-03-01T12:09:58.375Z,39.88
2018-03-01T12:10:58.666Z,39.88
2018-03-01T12:11:58.703Z,39.40
2018-03-01T12:12:58.871Z,39.31
2018-03-01T12:13:59.045Z,39.12
2018-03-01T12:14:59.173Z,38.84
2018-03-01T12:15:59.323Z,38.44
2018-03-01T12:16:59.466Z,38.35
2018-03-01T12:17:59.645Z,39.01
2018-03-01T12:18:59.789Z,41.02
2018-03-01T12:19:59.969Z,40.64
2018-03-01T12:21:00.124Z,40.16
2018-03-01T12:22:00.309Z,39.97
2018-03-01T12:23:00.446Z,38.84
2018-03-01T12:24:00.792Z,38.65
2018-03-01T12:25:01.493Z,39.03
2018-03-01T12:26:00.914Z,39.03
2018-03-01T12:27:01.066Z,38.93
2018-03-01T12:28:01.220Z,39.03
2018-03-01T12:29:01.381Z,38.84
2018-03-01T12:30:01.519Z,38.28
2018-03-01T12:31:01.823Z,37.52
2018-03-01T12:32:01.852Z,38.46
2018-03-01T12:33:02.002Z,37.99
2018-03-01T12:34:02.157Z,38.46
2018-03-01T12:35:02.434Z,38.18
2018-03-01T12:36:02.440Z,37.42
2018-03-01T12:37:02.593Z,37.04
2018-03-01T12:38:02.747Z,37.61
2018-03-01T12:39:02.899Z,37.80
2018-03-01T12:40:03.044Z,38.18
2018-03-01T12:41:03.196Z,37.71
2018-03-01T12:42:03.468Z,37.80
2018-03-01T12:43:03.558Z,37.71
2018-03-01T12:44:03.710Z,38.18
2018-03-01T12:45:03.864Z,38.28
2018-03-01T12:46:04.044Z,37.42
2018-03-01T12:47:04.188Z,37.14
2018-03-01T12:48:04.325Z,36.78
2018-03-01T12:49:04.480Z,36.97
2018-03-01T12:50:04.635Z,36.68
2018-03-01T12:51:04.783Z,37.44
2018-03-01T12:52:04.977Z,36.78
2018-03-01T12:53:05.087Z,36.31
2018-03-01T12:54:05.244Z,36.21